AirNav   $300 off a Bose A20 aviation headset
 
 926 users online  

K19 Albany Municipal Airport
Albany, Missouri, USA

GOING TO ALBANY?


FAA INFORMATION EFFECTIVE 28 FEBRUARY 2019

Location

FAA Identifier: K19
Lat/Long: 40-15-43.9000N / 094-20-20.5000W
40-15.731667N / 094-20.341667W
40.2621944 / -94.3390278
(estimated)
Elevation: 891 ft. / 272 m (estimated)
Variation: 05E (1985)
From city: 1 mile N of ALBANY, MO
Time zone: UTC -6 (UTC -5 during Daylight Saving Time)
Zip code: 64402

Airport Operations

Airport use: Open to the public
Activation date: 05/1982
Control tower: no
ARTCC: KANSAS CITY CENTER
FSS: COLUMBIA FLIGHT SERVICE STATION
NOTAMs facility: COU (NOTAM-D service available)
Attendance: UNATNDD
Wind indicator: lighted
Segmented circle: yes

Airport Communications

CTAF: 122.9

Nearby radio navigation aids

VOR radial/distance  VOR name  Freq  Var
LMNr213/26.3LAMONI VOR/DME116.7007E
STJr048/32.4ST JOSEPH VORTAC115.5008E

 
NDB name  Hdg/Dist  Freq  Var  ID
AMAZON045/34.623304EAZN .- --.. -.
TRENTON285/35.940003ETRX - .-. -..-

Airport Services

Fuel available: 100LL
SELF SERVICE FUEL - 24 HRS.

Runway Information

Runway 1/19

Dimensions: 3300 x 50 ft. / 1006 x 15 m
Surface: concrete, in good condition
Runway edge lights: non-standard
RY 01/19 VARIOUS THLD AND EDGE LGTS ARE BROKEN OR MISSING.
Gradient: S
RUNWAY 1  RUNWAY 19
Latitude: 40-15.465333N40-15.997667N
Longitude: 094-20.413333W094-20.268500W
Elevation: 891.0 ft.865.0 ft.
Gradient: 0.8% UP
Traffic pattern: leftright
Markings: basic, in good conditionbasic, in good condition
Visual slope indicator: panels that may or may not be lighted, on left
RWY 01 PNIL OTS INDEFLY.
panels that may or may not be lighted, on left
RWY 19 PNIL OTS INDEFLY.
Obstructions: 44 ft. trees, 820 ft. from runway, 200 ft. left and right of centerline, 14:1 slope to clear
+3-15 FT BRUSH, POST, SMALL TREES, FARM ROAD, 95-200 FT FM RWY END, 80-125 FT R.
5 ft. fence, 245 ft. from runway, 125 ft. left and right of centerline, 9:1 slope to clear

Airport Ownership and Management from official FAA records

Ownership: Publicly-owned
Owner: CITY OF ALBANY
106 E CLAY
ALBANY, MO 64402
Phone 660-726-3935
Manager: DEREK BROWN
106 E. CLAY
ALBANY, MO 64402
Phone 660-726-3935
GROUNDS KEEPER.

Airport Operational Statistics

Aircraft based on the field: 8
Single engine airplanes: 7
Multi engine airplanes: 1
    
Aircraft operations: avg 63/week *
71% local general aviation
29% transient general aviation
<1% military
* for 12-month period ending 31 December 2017

Additional Remarks

WILDLIFE ON & INVOF ARPT.

Instrument Procedures

There are no published instrument procedures at K19.

Some nearby airports with instrument procedures:

KEVU - Northwest Missouri Regional Airport (27 nm W)
KLWD - Lamoni Municipal Airport (30 nm NE)
KEZZ - Cameron Memorial Airport (32 nm S)
KTRX - Trenton Municipal Airport (36 nm E)
KSTJ - Rosecrans Memorial Airport (39 nm SW)
 
Loc | Ops | Rwys | IFR | FBO | Links
Com | Nav | Svcs | Stats | Notes

Kansas City Aviation Department
 
Area around K19 (Albany Municipal Airport)
 
Road maps at: MapQuest Bing Google
 
Aerial photo
WARNING: Photo may not be current or correct
Aerial photo of K19 (Albany Municipal Airport)
Photo taken 12-Aug-2008

Do you have a better or more recent aerial photo of Albany Municipal Airport that you would like to share? If so, please send us your photo.

 
Sectional chart

 
Airport distance calculator
Flying to Albany Municipal Airport? Find the distance to fly.

From to K19

Sunrise and sunset
Times for 26-Mar-2019
 Local
(UTC-5)
 Zulu
(UTC)
Morning civil twilight06:4511:45
Sunrise07:1212:12
Sunset19:3400:34
Evening civil twilight20:0201:02

Current date and time
Zulu (UTC)  27-Mar-2019 00:11:31
Local (UTC-5)  26-Mar-2019 19:11:31
 
METAR
KEVU 
27nm W 
262355Z AUTO 16009KT 10SM CLR 15/M05 A3024 RMK AO2
KLWD 
30nm NE 
262353Z AUTO 16006KT 10SM FEW075 12/03 A3027 RMK AO2 SLP255 6//// T01220028 10128 20011 56016
KEZZ 
32nm S 
262355Z AUTO 16007KT 10SM CLR 14/04 A3029 RMK AO2 T01380041 10156 20116 401560010
KSTJ 
40nm SW 
262353Z AUTO 16008KT 10SM CLR 15/06 A3026 RMK AO2 SLP247 T01500061 10167 20133 56016
KICL 
41nm NW 
262355Z AUTO 17008G16KT 10SM CLR 14/05 A3024 RMK AO2
KCDJ 
44nm SE 
262352Z AUTO 17006KT 14/03 A3030 RMK AO1 SLP266 T01390028 10144 20111 57015
KCSQ 
45nm N 
262355Z AUTO 17008KT 10SM SCT050 BKN060 OVC070 12/05 A3025 RMK AO2
TAF
KSTJ 
40nm SW 
261722Z 2618/2718 17007KT P6SM SCT060 FM270100 17009KT P6SM FEW250 FM271400 19015G25KT P6SM SCT100 OVC200
NOTAMs
Click for the latest NOTAMs
NOTAMs are issued by the DoD/FAA and will open in a separate window not controlled by AirNav.

 

 
 

FBO, Fuel Providers, and Aircraft Ground Support

  
 Business Name 
 
 Contact 
 
 Services / Description 
 
Fuel Prices
 
Comments
  
Albany Municipal Airport 660-726-3935
[email]
Aviation fuel, Aircraft parking (ramp or tiedown), Passenger terminal and lounge, Restrooms

More info about Albany Municipal Airport
independent
100LL
SS $4.04 
 Updated 26-Mar-2019
 
   2 read write
SS=Self service
Update Fuel Prices
 

Would you like to see your business listed on this page?

 If your business provides an interesting product or service to pilots, flight crews, aircraft, or users of the Albany Municipal Airport, you should consider listing it here.  To start the listing process, click on the button below
 
Add a business
 

Other Pages about Albany Municipal Airport

Update a link
 
Copyright © AirNav, LLC. All rights reserved. Privacy Policy  Contact